sensor_id;sensor_type;location;lat;lon;timestamp;P1;durP1;ratioP1;P2;durP2;ratioP2
51556;SDS011;38766;53.194;5.532;2023-05-17T00:01:31;16.55;;;3.90;;
51556;SDS011;38766;53.194;5.532;2023-05-17T00:03:57;15.73;;;3.60;;
51556;SDS011;38766;53.194;5.532;2023-05-17T00:06:23;13.05;;;3.25;;
51556;SDS011;38766;53.194;5.532;2023-05-17T00:08:48;18.45;;;3.60;;
51556;SDS011;38766;53.194;5.532;2023-05-17T00:11:14;16.55;;;3.63;;
51556;SDS011;38766;53.194;5.532;2023-05-17T00:13:40;18.73;;;3.35;;
51556;SDS011;38766;53.194;5.532;2023-05-17T00:16:06;15.13;;;3.40;;
51556;SDS011;38766;53.194;5.532;2023-05-17T00:18:32;21.63;;;4.20;;
51556;SDS011;38766;53.194;5.532;2023-05-17T00:20:58;15.52;;;3.90;;
51556;SDS011;38766;53.194;5.532;2023-05-17T00:23:24;21.30;;;3.58;;
51556;SDS011;38766;53.194;5.532;2023-05-17T00:25:49;19.83;;;4.10;;
51556;SDS011;38766;53.194;5.532;2023-05-17T00:28:15;15.73;;;3.65;;
51556;SDS011;38766;53.194;5.532;2023-05-17T00:30:41;13.75;;;3.47;;
51556;SDS011;38766;53.194;5.532;2023-05-17T00:33:06;15.13;;;3.03;;
51556;SDS011;38766;53.194;5.532;2023-05-17T00:35:32;15.93;;;3.17;;
51556;SDS011;38766;53.194;5.532;2023-05-17T00:37:58;16.13;;;3.60;;
51556;SDS011;38766;53.194;5.532;2023-05-17T00:40:23;12.60;;;3.03;;
51556;SDS011;38766;53.194;5.532;2023-05-17T00:42:49;16.27;;;3.08;;
51556;SDS011;38766;53.194;5.532;2023-05-17T00:45:15;17.45;;;3.75;;
51556;SDS011;38766;53.194;5.532;2023-05-17T00:47:41;17.48;;;3.33;;
51556;SDS011;38766;53.194;5.532;2023-05-17T00:50:06;18.63;;;3.72;;
51556;SDS011;38766;53.194;5.532;2023-05-17T00:52:33;14.88;;;3.60;;
51556;SDS011;38766;53.194;5.532;2023-05-17T00:55:00;13.65;;;3.60;;
51556;SDS011;38766;53.194;5.532;2023-05-17T00:57:26;15.40;;;4.18;;
51556;SDS011;38766;53.194;5.532;2023-05-17T00:59:53;16.48;;;4.15;;
51556;SDS011;38766;53.194;5.532;2023-05-17T01:02:19;18.95;;;3.30;;
51556;SDS011;38766;53.194;5.532;2023-05-17T01:04:46;22.55;;;3.65;;
51556;SDS011;38766;53.194;5.532;2023-05-17T01:07:12;16.60;;;3.30;;
51556;SDS011;38766;53.194;5.532;2023-05-17T01:09:38;16.48;;;3.42;;
51556;SDS011;38766;53.194;5.532;2023-05-17T01:17:06;14.13;;;3.58;;
51556;SDS011;38766;53.194;5.532;2023-05-17T01:19:49;21.88;;;3.78;;
51556;SDS011;38766;53.194;5.532;2023-05-17T01:27:42;18.35;;;4.22;;
51556;SDS011;38766;53.194;5.532;2023-05-17T01:30:12;24.80;;;3.47;;
51556;SDS011;38766;53.194;5.532;2023-05-17T01:32:42;22.23;;;4.18;;
51556;SDS011;38766;53.194;5.532;2023-05-17T01:35:09;20.35;;;4.40;;
51556;SDS011;38766;53.194;5.532;2023-05-17T01:37:36;22.30;;;3.88;;
51556;SDS011;38766;53.194;5.532;2023-05-17T01:40:03;16.08;;;3.85;;
51556;SDS011;38766;53.194;5.532;2023-05-17T01:42:30;19.02;;;3.92;;
51556;SDS011;38766;53.194;5.532;2023-05-17T01:50:09;12.95;;;3.00;;
51556;SDS011;38766;53.194;5.532;2023-05-17T01:52:46;17.63;;;3.35;;
51556;SDS011;38766;53.194;5.532;2023-05-17T01:58:17;10.50;;;2.80;;
51556;SDS011;38766;53.194;5.532;2023-05-17T02:00:48;20.98;;;2.92;;
51556;SDS011;38766;53.194;5.532;2023-05-17T02:03:18;14.68;;;2.97;;
51556;SDS011;38766;53.194;5.532;2023-05-17T02:05:44;13.73;;;2.90;;
51556;SDS011;38766;53.194;5.532;2023-05-17T02:08:10;8.85;;;2.70;;
51556;SDS011;38766;53.194;5.532;2023-05-17T02:10:36;13.00;;;2.22;;
51556;SDS011;38766;53.194;5.532;2023-05-17T02:13:02;13.95;;;2.50;;
51556;SDS011;38766;53.194;5.532;2023-05-17T02:15:28;10.10;;;2.40;;
51556;SDS011;38766;53.194;5.532;2023-05-17T02:17:53;12.45;;;3.13;;
51556;SDS011;38766;53.194;5.532;2023-05-17T02:20:19;11.82;;;2.42;;
51556;SDS011;38766;53.194;5.532;2023-05-17T02:22:45;12.15;;;2.72;;
51556;SDS011;38766;53.194;5.532;2023-05-17T02:25:11;8.35;;;2.35;;
51556;SDS011;38766;53.194;5.532;2023-05-17T02:27:39;15.18;;;2.47;;
51556;SDS011;38766;53.194;5.532;2023-05-17T02:30:05;6.75;;;2.25;;
51556;SDS011;38766;53.194;5.532;2023-05-17T02:32:31;15.77;;;2.20;;
51556;SDS011;38766;53.194;5.532;2023-05-17T02:34:57;8.15;;;2.17;;
51556;SDS011;38766;53.194;5.532;2023-05-17T02:37:23;8.40;;;2.95;;
51556;SDS011;38766;53.194;5.532;2023-05-17T02:39:49;10.85;;;2.30;;
51556;SDS011;38766;53.194;5.532;2023-05-17T02:42:14;8.68;;;2.22;;
51556;SDS011;38766;53.194;5.532;2023-05-17T02:44:40;15.35;;;2.42;;
51556;SDS011;38766;53.194;5.532;2023-05-17T02:47:06;9.80;;;2.67;;
51556;SDS011;38766;53.194;5.532;2023-05-17T02:49:31;14.20;;;2.42;;
51556;SDS011;38766;53.194;5.532;2023-05-17T02:51:57;6.72;;;2.17;;
51556;SDS011;38766;53.194;5.532;2023-05-17T02:54:22;14.43;;;2.85;;
51556;SDS011;38766;53.194;5.532;2023-05-17T02:56:48;11.90;;;3.25;;
51556;SDS011;38766;53.194;5.532;2023-05-17T02:59:14;18.25;;;2.60;;
51556;SDS011;38766;53.194;5.532;2023-05-17T03:01:39;7.97;;;2.55;;
51556;SDS011;38766;53.194;5.532;2023-05-17T03:04:06;14.30;;;2.92;;
51556;SDS011;38766;53.194;5.532;2023-05-17T03:06:31;12.38;;;2.83;;
51556;SDS011;38766;53.194;5.532;2023-05-17T03:08:58;10.57;;;2.60;;
51556;SDS011;38766;53.194;5.532;2023-05-17T03:11:24;9.80;;;2.58;;
51556;SDS011;38766;53.194;5.532;2023-05-17T03:13:50;12.60;;;2.63;;
51556;SDS011;38766;53.194;5.532;2023-05-17T03:16:16;12.98;;;2.47;;
51556;SDS011;38766;53.194;5.532;2023-05-17T03:18:42;15.65;;;2.80;;
51556;SDS011;38766;53.194;5.532;2023-05-17T03:21:08;10.23;;;2.47;;
51556;SDS011;38766;53.194;5.532;2023-05-17T03:23:34;9.50;;;2.63;;
51556;SDS011;38766;53.194;5.532;2023-05-17T03:26:00;10.30;;;2.20;;
51556;SDS011;38766;53.194;5.532;2023-05-17T03:28:25;8.13;;;2.00;;
51556;SDS011;38766;53.194;5.532;2023-05-17T03:30:51;12.77;;;2.85;;
51556;SDS011;38766;53.194;5.532;2023-05-17T03:33:17;10.13;;;2.30;;
51556;SDS011;38766;53.194;5.532;2023-05-17T03:35:43;11.65;;;2.65;;
51556;SDS011;38766;53.194;5.532;2023-05-17T03:38:11;14.63;;;2.30;;
51556;SDS011;38766;53.194;5.532;2023-05-17T03:40:37;8.27;;;2.50;;
51556;SDS011;38766;53.194;5.532;2023-05-17T03:43:02;9.95;;;2.10;;
51556;SDS011;38766;53.194;5.532;2023-05-17T03:45:28;11.77;;;2.88;;
51556;SDS011;38766;53.194;5.532;2023-05-17T03:47:54;10.50;;;2.22;;
51556;SDS011;38766;53.194;5.532;2023-05-17T03:50:20;5.97;;;1.98;;
51556;SDS011;38766;53.194;5.532;2023-05-17T03:52:46;7.03;;;1.95;;
51556;SDS011;38766;53.194;5.532;2023-05-17T03:55:12;14.55;;;2.50;;
51556;SDS011;38766;53.194;5.532;2023-05-17T03:57:38;11.80;;;2.30;;
51556;SDS011;38766;53.194;5.532;2023-05-17T04:00:04;9.38;;;2.05;;
51556;SDS011;38766;53.194;5.532;2023-05-17T04:02:35;5.45;;;2.05;;
51556;SDS011;38766;53.194;5.532;2023-05-17T04:05:00;8.05;;;2.22;;
51556;SDS011;38766;53.194;5.532;2023-05-17T04:07:26;6.15;;;2.10;;
51556;SDS011;38766;53.194;5.532;2023-05-17T04:09:53;14.18;;;2.78;;
51556;SDS011;38766;53.194;5.532;2023-05-17T04:12:22;10.07;;;2.78;;
51556;SDS011;38766;53.194;5.532;2023-05-17T04:14:48;9.27;;;2.17;;
51556;SDS011;38766;53.194;5.532;2023-05-17T04:17:14;10.48;;;2.55;;
51556;SDS011;38766;53.194;5.532;2023-05-17T04:19:39;10.43;;;2.15;;
51556;SDS011;38766;53.194;5.532;2023-05-17T04:22:05;9.93;;;2.00;;
51556;SDS011;38766;53.194;5.532;2023-05-17T04:24:30;10.15;;;2.33;;
51556;SDS011;38766;53.194;5.532;2023-05-17T04:26:56;10.18;;;2.50;;
51556;SDS011;38766;53.194;5.532;2023-05-17T04:29:23;9.98;;;1.75;;
51556;SDS011;38766;53.194;5.532;2023-05-17T04:31:50;8.93;;;2.05;;
51556;SDS011;38766;53.194;5.532;2023-05-17T04:34:16;10.05;;;2.05;;
51556;SDS011;38766;53.194;5.532;2023-05-17T04:36:41;8.70;;;2.00;;
51556;SDS011;38766;53.194;5.532;2023-05-17T04:39:07;7.07;;;1.70;;
51556;SDS011;38766;53.194;5.532;2023-05-17T04:41:33;5.63;;;1.83;;
51556;SDS011;38766;53.194;5.532;2023-05-17T04:43:58;10.10;;;1.92;;
51556;SDS011;38766;53.194;5.532;2023-05-17T04:46:24;10.25;;;2.78;;
51556;SDS011;38766;53.194;5.532;2023-05-17T04:48:50;8.32;;;2.88;;
51556;SDS011;38766;53.194;5.532;2023-05-17T04:51:17;6.68;;;1.70;;
51556;SDS011;38766;53.194;5.532;2023-05-17T04:53:43;9.07;;;1.63;;
51556;SDS011;38766;53.194;5.532;2023-05-17T04:56:09;13.55;;;2.40;;
51556;SDS011;38766;53.194;5.532;2023-05-17T04:58:34;7.22;;;2.63;;
51556;SDS011;38766;53.194;5.532;2023-05-17T05:01:00;8.35;;;2.03;;
51556;SDS011;38766;53.194;5.532;2023-05-17T05:03:25;12.73;;;2.38;;
51556;SDS011;38766;53.194;5.532;2023-05-17T05:05:51;7.90;;;1.70;;
51556;SDS011;38766;53.194;5.532;2023-05-17T05:08:17;15.35;;;2.28;;
51556;SDS011;38766;53.194;5.532;2023-05-17T05:10:42;14.68;;;2.85;;
51556;SDS011;38766;53.194;5.532;2023-05-17T05:13:08;6.28;;;2.10;;
51556;SDS011;38766;53.194;5.532;2023-05-17T05:15:34;9.73;;;2.30;;
51556;SDS011;38766;53.194;5.532;2023-05-17T05:17:59;7.85;;;2.35;;
51556;SDS011;38766;53.194;5.532;2023-05-17T05:20:25;12.50;;;2.22;;
51556;SDS011;38766;53.194;5.532;2023-05-17T05:22:51;9.30;;;2.28;;
51556;SDS011;38766;53.194;5.532;2023-05-17T05:25:16;9.95;;;2.15;;
51556;SDS011;38766;53.194;5.532;2023-05-17T05:27:42;9.85;;;2.13;;
51556;SDS011;38766;53.194;5.532;2023-05-17T05:30:08;10.43;;;2.40;;
51556;SDS011;38766;53.194;5.532;2023-05-17T05:32:34;7.68;;;1.88;;
51556;SDS011;38766;53.194;5.532;2023-05-17T05:35:02;7.57;;;2.10;;
51556;SDS011;38766;53.194;5.532;2023-05-17T05:37:29;13.88;;;2.40;;
51556;SDS011;38766;53.194;5.532;2023-05-17T05:39:55;10.88;;;2.13;;
51556;SDS011;38766;53.194;5.532;2023-05-17T05:42:21;9.90;;;2.20;;
51556;SDS011;38766;53.194;5.532;2023-05-17T05:44:47;9.77;;;2.55;;
51556;SDS011;38766;53.194;5.532;2023-05-17T05:47:12;11.77;;;2.30;;
51556;SDS011;38766;53.194;5.532;2023-05-17T05:49:38;9.20;;;2.15;;
51556;SDS011;38766;53.194;5.532;2023-05-17T05:52:04;16.95;;;3.03;;
51556;SDS011;38766;53.194;5.532;2023-05-17T05:54:30;13.20;;;2.40;;
51556;SDS011;38766;53.194;5.532;2023-05-17T05:56:55;9.68;;;3.00;;
51556;SDS011;38766;53.194;5.532;2023-05-17T05:59:21;8.25;;;2.13;;
51556;SDS011;38766;53.194;5.532;2023-05-17T06:01:46;10.15;;;2.25;;
51556;SDS011;38766;53.194;5.532;2023-05-17T06:04:12;10.68;;;2.60;;
51556;SDS011;38766;53.194;5.532;2023-05-17T06:06:38;11.68;;;2.53;;
51556;SDS011;38766;53.194;5.532;2023-05-17T06:09:03;8.60;;;2.20;;
51556;SDS011;38766;53.194;5.532;2023-05-17T06:11:31;14.48;;;2.53;;
51556;SDS011;38766;53.194;5.532;2023-05-17T06:13:57;11.23;;;3.20;;
51556;SDS011;38766;53.194;5.532;2023-05-17T06:16:22;9.85;;;3.05;;
51556;SDS011;38766;53.194;5.532;2023-05-17T06:18:48;11.77;;;2.28;;
51556;SDS011;38766;53.194;5.532;2023-05-17T06:21:13;12.05;;;2.60;;
51556;SDS011;38766;53.194;5.532;2023-05-17T06:23:40;10.48;;;1.98;;
51556;SDS011;38766;53.194;5.532;2023-05-17T06:26:05;11.90;;;2.75;;
51556;SDS011;38766;53.194;5.532;2023-05-17T06:28:34;11.77;;;2.75;;
51556;SDS011;38766;53.194;5.532;2023-05-17T06:31:00;12.57;;;2.50;;
51556;SDS011;38766;53.194;5.532;2023-05-17T06:33:26;9.35;;;2.00;;
51556;SDS011;38766;53.194;5.532;2023-05-17T06:35:52;12.48;;;3.30;;
51556;SDS011;38766;53.194;5.532;2023-05-17T06:38:18;10.57;;;2.72;;
51556;SDS011;38766;53.194;5.532;2023-05-17T06:40:44;11.75;;;2.63;;
51556;SDS011;38766;53.194;5.532;2023-05-17T06:43:09;18.38;;;3.03;;
51556;SDS011;38766;53.194;5.532;2023-05-17T06:45:35;14.65;;;2.75;;
51556;SDS011;38766;53.194;5.532;2023-05-17T06:48:01;11.93;;;2.97;;
51556;SDS011;38766;53.194;5.532;2023-05-17T06:50:29;16.30;;;2.75;;
51556;SDS011;38766;53.194;5.532;2023-05-17T06:52:55;12.00;;;2.50;;
51556;SDS011;38766;53.194;5.532;2023-05-17T06:55:21;12.10;;;2.85;;
51556;SDS011;38766;53.194;5.532;2023-05-17T06:57:47;12.70;;;2.80;;
51556;SDS011;38766;53.194;5.532;2023-05-17T07:00:12;9.23;;;2.78;;
51556;SDS011;38766;53.194;5.532;2023-05-17T07:02:38;15.48;;;3.17;;
51556;SDS011;38766;53.194;5.532;2023-05-17T07:05:04;12.32;;;2.80;;
51556;SDS011;38766;53.194;5.532;2023-05-17T07:07:30;16.08;;;2.75;;
51556;SDS011;38766;53.194;5.532;2023-05-17T07:09:56;20.75;;;2.80;;
51556;SDS011;38766;53.194;5.532;2023-05-17T07:12:22;12.07;;;3.38;;
51556;SDS011;38766;53.194;5.532;2023-05-17T07:14:47;9.45;;;2.85;;
51556;SDS011;38766;53.194;5.532;2023-05-17T07:17:13;11.75;;;2.70;;
51556;SDS011;38766;53.194;5.532;2023-05-17T07:19:39;10.27;;;2.58;;
51556;SDS011;38766;53.194;5.532;2023-05-17T07:22:04;9.82;;;2.70;;
51556;SDS011;38766;53.194;5.532;2023-05-17T07:24:30;9.10;;;2.40;;
51556;SDS011;38766;53.194;5.532;2023-05-17T07:26:56;11.10;;;2.28;;
51556;SDS011;38766;53.194;5.532;2023-05-17T07:29:21;11.35;;;2.85;;
51556;SDS011;38766;53.194;5.532;2023-05-17T07:31:47;8.02;;;2.22;;
51556;SDS011;38766;53.194;5.532;2023-05-17T07:34:13;11.25;;;2.83;;
51556;SDS011;38766;53.194;5.532;2023-05-17T07:36:38;11.63;;;2.55;;
51556;SDS011;38766;53.194;5.532;2023-05-17T07:39:04;13.15;;;2.72;;
51556;SDS011;38766;53.194;5.532;2023-05-17T07:41:30;16.52;;;2.70;;
51556;SDS011;38766;53.194;5.532;2023-05-17T07:43:56;7.50;;;2.40;;
51556;SDS011;38766;53.194;5.532;2023-05-17T07:46:22;14.25;;;2.80;;
51556;SDS011;38766;53.194;5.532;2023-05-17T07:48:47;10.40;;;2.50;;
51556;SDS011;38766;53.194;5.532;2023-05-17T07:51:13;9.50;;;2.50;;
51556;SDS011;38766;53.194;5.532;2023-05-17T07:53:39;9.93;;;2.88;;
51556;SDS011;38766;53.194;5.532;2023-05-17T07:56:05;9.43;;;2.33;;
51556;SDS011;38766;53.194;5.532;2023-05-17T07:58:30;8.10;;;2.30;;
51556;SDS011;38766;53.194;5.532;2023-05-17T08:00:56;13.07;;;3.03;;
51556;SDS011;38766;53.194;5.532;2023-05-17T08:03:23;10.35;;;2.17;;
51556;SDS011;38766;53.194;5.532;2023-05-17T08:05:48;8.40;;;2.30;;
51556;SDS011;38766;53.194;5.532;2023-05-17T08:08:14;11.43;;;2.40;;
51556;SDS011;38766;53.194;5.532;2023-05-17T08:10:40;12.25;;;2.88;;
51556;SDS011;38766;53.194;5.532;2023-05-17T08:13:07;16.20;;;2.50;;
51556;SDS011;38766;53.194;5.532;2023-05-17T08:15:33;7.53;;;2.38;;
51556;SDS011;38766;53.194;5.532;2023-05-17T08:17:58;16.70;;;2.60;;
51556;SDS011;38766;53.194;5.532;2023-05-17T08:20:24;13.95;;;3.47;;
51556;SDS011;38766;53.194;5.532;2023-05-17T08:22:50;9.98;;;2.60;;
51556;SDS011;38766;53.194;5.532;2023-05-17T08:25:15;8.98;;;2.05;;
51556;SDS011;38766;53.194;5.532;2023-05-17T08:27:41;12.35;;;3.20;;
51556;SDS011;38766;53.194;5.532;2023-05-17T08:30:07;10.45;;;2.65;;
51556;SDS011;38766;53.194;5.532;2023-05-17T08:32:33;16.45;;;2.80;;
51556;SDS011;38766;53.194;5.532;2023-05-17T08:34:58;12.05;;;2.85;;
51556;SDS011;38766;53.194;5.532;2023-05-17T08:37:24;8.32;;;2.55;;
51556;SDS011;38766;53.194;5.532;2023-05-17T08:39:49;8.65;;;2.25;;
51556;SDS011;38766;53.194;5.532;2023-05-17T08:42:17;13.00;;;3.05;;
51556;SDS011;38766;53.194;5.532;2023-05-17T08:44:53;13.13;;;2.92;;
51556;SDS011;38766;53.194;5.532;2023-05-17T08:47:20;13.07;;;2.50;;
51556;SDS011;38766;53.194;5.532;2023-05-17T08:49:54;12.30;;;2.22;;
51556;SDS011;38766;53.194;5.532;2023-05-17T08:52:27;12.43;;;2.97;;
51556;SDS011;38766;53.194;5.532;2023-05-17T08:54:57;10.77;;;2.53;;
51556;SDS011;38766;53.194;5.532;2023-05-17T08:57:28;11.27;;;2.58;;
51556;SDS011;38766;53.194;5.532;2023-05-17T08:59:55;6.00;;;2.10;;
51556;SDS011;38766;53.194;5.532;2023-05-17T09:02:23;14.68;;;3.00;;
51556;SDS011;38766;53.194;5.532;2023-05-17T09:04:49;5.93;;;1.85;;
51556;SDS011;38766;53.194;5.532;2023-05-17T09:07:22;8.90;;;2.10;;
51556;SDS011;38766;53.194;5.532;2023-05-17T09:09:52;9.10;;;2.60;;
51556;SDS011;38766;53.194;5.532;2023-05-17T09:12:20;8.65;;;2.20;;
51556;SDS011;38766;53.194;5.532;2023-05-17T09:14:46;11.80;;;2.45;;
51556;SDS011;38766;53.194;5.532;2023-05-17T09:17:17;8.27;;;2.42;;
51556;SDS011;38766;53.194;5.532;2023-05-17T09:19:47;6.45;;;1.83;;
51556;SDS011;38766;53.194;5.532;2023-05-17T09:22:16;7.35;;;2.13;;
51556;SDS011;38766;53.194;5.532;2023-05-17T09:24:42;8.90;;;2.67;;
51556;SDS011;38766;53.194;5.532;2023-05-17T09:27:10;6.72;;;2.05;;
51556;SDS011;38766;53.194;5.532;2023-05-17T09:29:39;9.40;;;2.35;;
51556;SDS011;38766;53.194;5.532;2023-05-17T09:32:12;9.50;;;2.40;;
51556;SDS011;38766;53.194;5.532;2023-05-17T09:34:42;7.30;;;1.90;;
51556;SDS011;38766;53.194;5.532;2023-05-17T09:37:13;7.05;;;2.17;;
51556;SDS011;38766;53.194;5.532;2023-05-17T09:39:40;7.05;;;2.20;;
51556;SDS011;38766;53.194;5.532;2023-05-17T09:42:07;5.95;;;2.28;;
51556;SDS011;38766;53.194;5.532;2023-05-17T09:44:49;10.68;;;2.65;;
51556;SDS011;38766;53.194;5.532;2023-05-17T09:47:24;10.85;;;2.78;;
51556;SDS011;38766;53.194;5.532;2023-05-17T09:49:51;7.47;;;2.13;;
51556;SDS011;38766;53.194;5.532;2023-05-17T09:52:18;6.07;;;1.98;;
51556;SDS011;38766;53.194;5.532;2023-05-17T09:54:54;5.45;;;1.92;;
51556;SDS011;38766;53.194;5.532;2023-05-17T09:57:21;9.95;;;3.10;;
51556;SDS011;38766;53.194;5.532;2023-05-17T09:59:47;7.15;;;2.33;;
51556;SDS011;38766;53.194;5.532;2023-05-17T10:02:18;10.60;;;2.55;;
51556;SDS011;38766;53.194;5.532;2023-05-17T10:04:47;6.53;;;2.28;;
51556;SDS011;38766;53.194;5.532;2023-05-17T10:07:17;10.95;;;2.30;;
51556;SDS011;38766;53.194;5.532;2023-05-17T10:09:47;8.88;;;2.40;;
51556;SDS011;38766;53.194;5.532;2023-05-17T10:12:17;10.88;;;2.50;;
51556;SDS011;38766;53.194;5.532;2023-05-17T10:14:46;7.78;;;2.03;;
51556;SDS011;38766;53.194;5.532;2023-05-17T10:17:13;13.70;;;2.58;;
51556;SDS011;38766;53.194;5.532;2023-05-17T10:19:39;11.18;;;3.03;;
51556;SDS011;38766;53.194;5.532;2023-05-17T10:22:05;12.45;;;2.53;;
51556;SDS011;38766;53.194;5.532;2023-05-17T10:24:31;11.68;;;2.15;;
51556;SDS011;38766;53.194;5.532;2023-05-17T10:27:01;6.07;;;2.08;;
51556;SDS011;38766;53.194;5.532;2023-05-17T10:29:27;9.82;;;2.50;;
51556;SDS011;38766;53.194;5.532;2023-05-17T10:31:55;9.55;;;1.92;;
51556;SDS011;38766;53.194;5.532;2023-05-17T10:34:22;7.70;;;2.10;;
51556;SDS011;38766;53.194;5.532;2023-05-17T10:36:51;8.07;;;2.60;;
51556;SDS011;38766;53.194;5.532;2023-05-17T10:39:18;10.25;;;2.40;;
51556;SDS011;38766;53.194;5.532;2023-05-17T10:41:46;9.40;;;2.65;;
51556;SDS011;38766;53.194;5.532;2023-05-17T10:44:15;8.82;;;2.70;;
51556;SDS011;38766;53.194;5.532;2023-05-17T10:47:00;10.23;;;2.95;;
51556;SDS011;38766;53.194;5.532;2023-05-17T10:49:30;13.35;;;3.03;;
51556;SDS011;38766;53.194;5.532;2023-05-17T10:51:57;7.70;;;2.47;;
51556;SDS011;38766;53.194;5.532;2023-05-17T10:54:35;11.05;;;2.38;;
51556;SDS011;38766;53.194;5.532;2023-05-17T10:57:03;12.15;;;2.72;;
51556;SDS011;38766;53.194;5.532;2023-05-17T10:59:30;10.63;;;2.35;;
51556;SDS011;38766;53.194;5.532;2023-05-17T11:04:38;13.68;;;2.70;;
51556;SDS011;38766;53.194;5.532;2023-05-17T11:09:49;16.30;;;3.08;;
51556;SDS011;38766;53.194;5.532;2023-05-17T11:12:37;11.82;;;2.80;;
51556;SDS011;38766;53.194;5.532;2023-05-17T11:15:06;12.32;;;2.85;;
51556;SDS011;38766;53.194;5.532;2023-05-17T11:17:33;12.32;;;3.15;;
51556;SDS011;38766;53.194;5.532;2023-05-17T11:22:48;11.68;;;2.75;;
51556;SDS011;38766;53.194;5.532;2023-05-17T11:25:15;9.02;;;3.10;;
51556;SDS011;38766;53.194;5.532;2023-05-17T11:27:50;13.48;;;3.42;;
51556;SDS011;38766;53.194;5.532;2023-05-17T11:30:17;11.10;;;2.65;;
51556;SDS011;38766;53.194;5.532;2023-05-17T11:33:15;11.55;;;3.28;;
51556;SDS011;38766;53.194;5.532;2023-05-17T11:35:41;15.43;;;3.28;;
51556;SDS011;38766;53.194;5.532;2023-05-17T11:38:26;11.65;;;2.55;;
51556;SDS011;38766;53.194;5.532;2023-05-17T11:40:55;11.38;;;2.60;;
51556;SDS011;38766;53.194;5.532;2023-05-17T11:43:22;9.60;;;2.53;;
51556;SDS011;38766;53.194;5.532;2023-05-17T11:45:53;9.38;;;3.08;;
51556;SDS011;38766;53.194;5.532;2023-05-17T11:48:28;7.50;;;2.03;;
51556;SDS011;38766;53.194;5.532;2023-05-17T11:50:55;7.72;;;2.50;;
51556;SDS011;38766;53.194;5.532;2023-05-17T11:53:21;13.75;;;3.10;;
51556;SDS011;38766;53.194;5.532;2023-05-17T11:55:49;10.73;;;2.50;;
51556;SDS011;38766;53.194;5.532;2023-05-17T11:58:20;9.98;;;2.28;;
51556;SDS011;38766;53.194;5.532;2023-05-17T12:00:53;6.07;;;2.17;;
51556;SDS011;38766;53.194;5.532;2023-05-17T12:03:21;9.13;;;3.25;;
51556;SDS011;38766;53.194;5.532;2023-05-17T12:05:49;17.80;;;2.65;;
51556;SDS011;38766;53.194;5.532;2023-05-17T12:08:25;11.00;;;2.00;;
51556;SDS011;38766;53.194;5.532;2023-05-17T12:10:51;11.65;;;2.30;;
51556;SDS011;38766;53.194;5.532;2023-05-17T12:13:17;9.68;;;2.83;;
51556;SDS011;38766;53.194;5.532;2023-05-17T12:15:47;9.75;;;2.35;;
51556;SDS011;38766;53.194;5.532;2023-05-17T12:18:17;8.85;;;2.22;;
51556;SDS011;38766;53.194;5.532;2023-05-17T12:21:06;9.38;;;2.30;;
51556;SDS011;38766;53.194;5.532;2023-05-17T12:23:31;9.63;;;2.50;;
51556;SDS011;38766;53.194;5.532;2023-05-17T12:28:27;11.52;;;2.70;;
51556;SDS011;38766;53.194;5.532;2023-05-17T12:30:53;7.88;;;2.00;;
51556;SDS011;38766;53.194;5.532;2023-05-17T12:33:26;7.57;;;2.28;;
51556;SDS011;38766;53.194;5.532;2023-05-17T12:35:57;11.55;;;2.60;;
51556;SDS011;38766;53.194;5.532;2023-05-17T12:38:25;7.60;;;2.15;;
51556;SDS011;38766;53.194;5.532;2023-05-17T12:40:56;8.00;;;1.63;;
51556;SDS011;38766;53.194;5.532;2023-05-17T12:43:26;8.82;;;2.05;;
51556;SDS011;38766;53.194;5.532;2023-05-17T12:45:55;7.10;;;2.00;;
51556;SDS011;38766;53.194;5.532;2023-05-17T12:48:28;7.38;;;2.00;;
51556;SDS011;38766;53.194;5.532;2023-05-17T12:50:54;6.50;;;2.05;;
51556;SDS011;38766;53.194;5.532;2023-05-17T12:53:20;9.55;;;2.20;;
51556;SDS011;38766;53.194;5.532;2023-05-17T12:55:47;6.47;;;1.90;;
51556;SDS011;38766;53.194;5.532;2023-05-17T12:58:13;7.85;;;1.48;;
51556;SDS011;38766;53.194;5.532;2023-05-17T13:00:39;5.60;;;1.67;;
51556;SDS011;38766;53.194;5.532;2023-05-17T13:03:08;5.28;;;1.75;;
51556;SDS011;38766;53.194;5.532;2023-05-17T13:05:34;11.95;;;1.98;;
51556;SDS011;38766;53.194;5.532;2023-05-17T13:08:19;8.18;;;2.05;;
51556;SDS011;38766;53.194;5.532;2023-05-17T13:10:48;10.00;;;1.90;;
51556;SDS011;38766;53.194;5.532;2023-05-17T13:13:17;7.82;;;2.05;;
51556;SDS011;38766;53.194;5.532;2023-05-17T13:15:44;5.40;;;1.70;;
51556;SDS011;38766;53.194;5.532;2023-05-17T13:18:14;5.25;;;1.83;;
51556;SDS011;38766;53.194;5.532;2023-05-17T13:20:41;5.90;;;1.70;;
51556;SDS011;38766;53.194;5.532;2023-05-17T13:23:07;5.22;;;1.83;;
51556;SDS011;38766;53.194;5.532;2023-05-17T13:25:33;4.68;;;1.63;;
51556;SDS011;38766;53.194;5.532;2023-05-17T13:28:00;6.13;;;1.52;;
51556;SDS011;38766;53.194;5.532;2023-05-17T13:30:26;6.85;;;1.77;;
51556;SDS011;38766;53.194;5.532;2023-05-17T13:32:52;6.45;;;1.77;;
51556;SDS011;38766;53.194;5.532;2023-05-17T13:35:18;9.75;;;2.00;;
51556;SDS011;38766;53.194;5.532;2023-05-17T13:37:44;5.50;;;1.95;;
51556;SDS011;38766;53.194;5.532;2023-05-17T13:40:10;6.68;;;1.55;;
51556;SDS011;38766;53.194;5.532;2023-05-17T13:42:36;5.15;;;1.60;;
51556;SDS011;38766;53.194;5.532;2023-05-17T13:45:02;5.63;;;1.70;;
51556;SDS011;38766;53.194;5.532;2023-05-17T13:47:28;3.72;;;1.60;;
51556;SDS011;38766;53.194;5.532;2023-05-17T13:49:59;4.55;;;1.80;;
51556;SDS011;38766;53.194;5.532;2023-05-17T13:52:25;7.03;;;1.92;;
51556;SDS011;38766;53.194;5.532;2023-05-17T13:54:51;6.57;;;1.58;;
51556;SDS011;38766;53.194;5.532;2023-05-17T13:57:17;6.28;;;1.67;;
51556;SDS011;38766;53.194;5.532;2023-05-17T13:59:43;9.55;;;2.33;;
51556;SDS011;38766;53.194;5.532;2023-05-17T14:02:08;4.35;;;1.33;;
51556;SDS011;38766;53.194;5.532;2023-05-17T14:04:34;4.68;;;1.75;;
51556;SDS011;38766;53.194;5.532;2023-05-17T14:07:00;5.97;;;1.77;;
51556;SDS011;38766;53.194;5.532;2023-05-17T14:09:27;5.65;;;1.63;;
51556;SDS011;38766;53.194;5.532;2023-05-17T14:11:56;5.18;;;2.00;;
51556;SDS011;38766;53.194;5.532;2023-05-17T14:14:22;5.60;;;1.60;;
51556;SDS011;38766;53.194;5.532;2023-05-17T14:16:52;9.68;;;1.92;;
51556;SDS011;38766;53.194;5.532;2023-05-17T14:19:18;7.53;;;2.25;;
51556;SDS011;38766;53.194;5.532;2023-05-17T14:21:43;6.60;;;1.98;;
51556;SDS011;38766;53.194;5.532;2023-05-17T14:24:09;11.32;;;2.13;;
51556;SDS011;38766;53.194;5.532;2023-05-17T14:26:35;6.32;;;2.15;;
51556;SDS011;38766;53.194;5.532;2023-05-17T14:29:01;5.50;;;2.35;;
51556;SDS011;38766;53.194;5.532;2023-05-17T14:31:27;7.63;;;1.90;;
51556;SDS011;38766;53.194;5.532;2023-05-17T14:33:54;10.50;;;1.88;;
51556;SDS011;38766;53.194;5.532;2023-05-17T14:36:19;7.07;;;1.90;;
51556;SDS011;38766;53.194;5.532;2023-05-17T14:38:45;10.23;;;2.30;;
51556;SDS011;38766;53.194;5.532;2023-05-17T14:41:11;7.57;;;1.92;;
51556;SDS011;38766;53.194;5.532;2023-05-17T14:43:36;7.35;;;1.92;;
51556;SDS011;38766;53.194;5.532;2023-05-17T14:46:02;5.82;;;2.00;;
51556;SDS011;38766;53.194;5.532;2023-05-17T14:48:28;5.18;;;2.03;;
51556;SDS011;38766;53.194;5.532;2023-05-17T14:51:04;8.02;;;1.92;;
51556;SDS011;38766;53.194;5.532;2023-05-17T14:53:30;9.23;;;1.85;;
51556;SDS011;38766;53.194;5.532;2023-05-17T14:55:55;6.10;;;1.50;;
51556;SDS011;38766;53.194;5.532;2023-05-17T14:58:21;6.43;;;1.80;;
51556;SDS011;38766;53.194;5.532;2023-05-17T15:00:47;9.40;;;1.77;;
51556;SDS011;38766;53.194;5.532;2023-05-17T15:03:15;5.35;;;1.60;;
51556;SDS011;38766;53.194;5.532;2023-05-17T15:05:42;6.68;;;1.60;;
51556;SDS011;38766;53.194;5.532;2023-05-17T15:08:08;7.07;;;1.98;;
51556;SDS011;38766;53.194;5.532;2023-05-17T15:10:36;7.78;;;2.00;;